sensor_id;sensor_type;location;lat;lon;timestamp;temperature;humidity
19085;DHT22;9675;51.538;6.728;2022-09-24T00:01:38;17.10;99.90
19085;DHT22;9675;51.538;6.728;2022-09-24T00:04:07;17.10;99.90
19085;DHT22;9675;51.538;6.728;2022-09-24T00:06:38;17.10;99.90
19085;DHT22;9675;51.538;6.728;2022-09-24T00:09:06;17.10;99.90
19085;DHT22;9675;51.538;6.728;2022-09-24T00:11:34;17.00;99.90
19085;DHT22;9675;51.538;6.728;2022-09-24T00:14:03;17.10;99.90
19085;DHT22;9675;51.538;6.728;2022-09-24T00:16:32;17.10;99.90
19085;DHT22;9675;51.538;6.728;2022-09-24T00:19:00;17.00;99.90
19085;DHT22;9675;51.538;6.728;2022-09-24T00:21:31;17.00;99.90
19085;DHT22;9675;51.538;6.728;2022-09-24T00:24:00;17.00;99.90
19085;DHT22;9675;51.538;6.728;2022-09-24T00:26:31;17.00;99.90
19085;DHT22;9675;51.538;6.728;2022-09-24T00:29:19;17.00;99.90
19085;DHT22;9675;51.538;6.728;2022-09-24T00:31:47;17.00;99.90
19085;DHT22;9675;51.538;6.728;2022-09-24T00:34:16;17.00;99.90
19085;DHT22;9675;51.538;6.728;2022-09-24T00:36:44;17.00;99.90
19085;DHT22;9675;51.538;6.728;2022-09-24T00:39:13;16.90;99.90
19085;DHT22;9675;51.538;6.728;2022-09-24T00:41:44;16.90;99.90
19085;DHT22;9675;51.538;6.728;2022-09-24T00:44:47;16.90;99.90
19085;DHT22;9675;51.538;6.728;2022-09-24T00:47:27;16.90;99.90
19085;DHT22;9675;51.538;6.728;2022-09-24T00:50:17;16.90;99.90
19085;DHT22;9675;51.538;6.728;2022-09-24T00:52:51;16.90;99.90
19085;DHT22;9675;51.538;6.728;2022-09-24T00:55:23;16.90;99.90
19085;DHT22;9675;51.538;6.728;2022-09-24T00:57:55;16.90;99.90
19085;DHT22;9675;51.538;6.728;2022-09-24T01:00:26;16.90;99.90
19085;DHT22;9675;51.538;6.728;2022-09-24T01:02:55;16.90;99.90
19085;DHT22;9675;51.538;6.728;2022-09-24T01:05:27;16.80;99.90
19085;DHT22;9675;51.538;6.728;2022-09-24T01:07:56;16.80;99.90
19085;DHT22;9675;51.538;6.728;2022-09-24T01:10:37;16.80;99.90
19085;DHT22;9675;51.538;6.728;2022-09-24T01:13:38;16.80;99.90
19085;DHT22;9675;51.538;6.728;2022-09-24T01:16:27;16.80;99.90
19085;DHT22;9675;51.538;6.728;2022-09-24T01:19:10;16.80;99.90
19085;DHT22;9675;51.538;6.728;2022-09-24T01:21:55;16.80;99.90
19085;DHT22;9675;51.538;6.728;2022-09-24T01:24:39;16.80;99.90
19085;DHT22;9675;51.538;6.728;2022-09-24T01:27:20;16.80;99.90
19085;DHT22;9675;51.538;6.728;2022-09-24T01:30:03;16.70;99.90
19085;DHT22;9675;51.538;6.728;2022-09-24T01:32:35;16.70;99.90
19085;DHT22;9675;51.538;6.728;2022-09-24T01:35:11;16.70;99.90
19085;DHT22;9675;51.538;6.728;2022-09-24T01:37:49;16.70;99.90
19085;DHT22;9675;51.538;6.728;2022-09-24T01:40:23;16.70;99.90
19085;DHT22;9675;51.538;6.728;2022-09-24T01:42:55;16.70;99.90
19085;DHT22;9675;51.538;6.728;2022-09-24T01:45:26;16.70;99.90
19085;DHT22;9675;51.538;6.728;2022-09-24T01:47:57;16.70;99.90
19085;DHT22;9675;51.538;6.728;2022-09-24T01:50:27;16.60;99.90
19085;DHT22;9675;51.538;6.728;2022-09-24T01:53:03;16.70;99.90
19085;DHT22;9675;51.538;6.728;2022-09-24T01:55:36;16.70;99.90
19085;DHT22;9675;51.538;6.728;2022-09-24T01:58:12;16.60;99.90
19085;DHT22;9675;51.538;6.728;2022-09-24T02:00:47;16.60;99.90
19085;DHT22;9675;51.538;6.728;2022-09-24T02:03:24;16.60;99.90
19085;DHT22;9675;51.538;6.728;2022-09-24T02:05:59;16.60;99.90
19085;DHT22;9675;51.538;6.728;2022-09-24T02:08:32;16.60;99.90
19085;DHT22;9675;51.538;6.728;2022-09-24T02:11:06;16.60;99.90
19085;DHT22;9675;51.538;6.728;2022-09-24T02:13:42;16.60;99.90
19085;DHT22;9675;51.538;6.728;2022-09-24T02:16:17;16.60;99.90
19085;DHT22;9675;51.538;6.728;2022-09-24T02:18:50;16.60;99.90
19085;DHT22;9675;51.538;6.728;2022-09-24T02:21:21;16.60;99.90
19085;DHT22;9675;51.538;6.728;2022-09-24T02:23:53;16.60;99.90
19085;DHT22;9675;51.538;6.728;2022-09-24T02:26:24;16.60;99.90
19085;DHT22;9675;51.538;6.728;2022-09-24T02:28:51;16.60;99.90
19085;DHT22;9675;51.538;6.728;2022-09-24T02:31:25;16.50;99.90
19085;DHT22;9675;51.538;6.728;2022-09-24T02:33:56;16.50;99.90
19085;DHT22;9675;51.538;6.728;2022-09-24T02:36:47;16.50;99.90
19085;DHT22;9675;51.538;6.728;2022-09-24T02:39:14;16.50;99.90
19085;DHT22;9675;51.538;6.728;2022-09-24T02:41:43;16.50;99.90
19085;DHT22;9675;51.538;6.728;2022-09-24T02:44:13;16.50;99.90
19085;DHT22;9675;51.538;6.728;2022-09-24T02:46:42;16.50;99.90
19085;DHT22;9675;51.538;6.728;2022-09-24T02:49:10;16.50;99.90
19085;DHT22;9675;51.538;6.728;2022-09-24T02:51:37;16.50;99.90
19085;DHT22;9675;51.538;6.728;2022-09-24T02:54:05;16.40;99.90
19085;DHT22;9675;51.538;6.728;2022-09-24T02:56:33;16.40;99.90
19085;DHT22;9675;51.538;6.728;2022-09-24T02:59:00;16.40;99.90
19085;DHT22;9675;51.538;6.728;2022-09-24T03:01:29;16.40;99.90
19085;DHT22;9675;51.538;6.728;2022-09-24T03:03:58;16.40;99.90
19085;DHT22;9675;51.538;6.728;2022-09-24T03:06:25;16.40;99.90
19085;DHT22;9675;51.538;6.728;2022-09-24T03:08:53;16.40;99.90
19085;DHT22;9675;51.538;6.728;2022-09-24T03:11:21;16.40;99.90
19085;DHT22;9675;51.538;6.728;2022-09-24T03:13:49;16.40;99.90
19085;DHT22;9675;51.538;6.728;2022-09-24T03:16:17;16.40;99.90
19085;DHT22;9675;51.538;6.728;2022-09-24T03:18:47;16.40;99.90
19085;DHT22;9675;51.538;6.728;2022-09-24T03:21:17;16.40;99.90
19085;DHT22;9675;51.538;6.728;2022-09-24T03:23:46;16.30;99.90
19085;DHT22;9675;51.538;6.728;2022-09-24T03:26:13;16.30;99.90
19085;DHT22;9675;51.538;6.728;2022-09-24T03:28:42;16.30;99.90
19085;DHT22;9675;51.538;6.728;2022-09-24T03:31:09;16.40;99.90
19085;DHT22;9675;51.538;6.728;2022-09-24T03:33:38;16.40;99.90
19085;DHT22;9675;51.538;6.728;2022-09-24T03:36:08;16.30;99.90
19085;DHT22;9675;51.538;6.728;2022-09-24T03:38:40;16.30;99.90
19085;DHT22;9675;51.538;6.728;2022-09-24T03:41:10;16.30;99.90
19085;DHT22;9675;51.538;6.728;2022-09-24T03:43:38;16.30;99.90
19085;DHT22;9675;51.538;6.728;2022-09-24T03:46:06;16.30;99.90
19085;DHT22;9675;51.538;6.728;2022-09-24T03:48:37;16.30;99.90
19085;DHT22;9675;51.538;6.728;2022-09-24T03:51:07;16.30;99.90
19085;DHT22;9675;51.538;6.728;2022-09-24T03:53:37;16.30;99.90
19085;DHT22;9675;51.538;6.728;2022-09-24T03:56:06;16.30;99.90
19085;DHT22;9675;51.538;6.728;2022-09-24T03:58:35;16.30;99.90
19085;DHT22;9675;51.538;6.728;2022-09-24T04:01:03;16.30;99.90
19085;DHT22;9675;51.538;6.728;2022-09-24T04:03:31;16.30;99.90
19085;DHT22;9675;51.538;6.728;2022-09-24T04:05:58;16.20;99.90
19085;DHT22;9675;51.538;6.728;2022-09-24T04:08:25;16.20;99.90
19085;DHT22;9675;51.538;6.728;2022-09-24T04:10:53;16.20;99.90
19085;DHT22;9675;51.538;6.728;2022-09-24T04:13:21;16.20;99.90
19085;DHT22;9675;51.538;6.728;2022-09-24T04:15:49;16.20;99.90
19085;DHT22;9675;51.538;6.728;2022-09-24T04:18:16;16.20;99.90
19085;DHT22;9675;51.538;6.728;2022-09-24T04:20:44;16.20;99.90
19085;DHT22;9675;51.538;6.728;2022-09-24T04:23:12;16.20;99.90
19085;DHT22;9675;51.538;6.728;2022-09-24T04:25:39;16.20;99.90
19085;DHT22;9675;51.538;6.728;2022-09-24T04:28:08;16.20;99.90
19085;DHT22;9675;51.538;6.728;2022-09-24T04:30:37;16.10;99.90
19085;DHT22;9675;51.538;6.728;2022-09-24T04:33:05;16.10;99.90
19085;DHT22;9675;51.538;6.728;2022-09-24T04:35:33;16.10;99.90
19085;DHT22;9675;51.538;6.728;2022-09-24T04:38:02;16.10;99.90
19085;DHT22;9675;51.538;6.728;2022-09-24T04:40:30;16.10;99.90
19085;DHT22;9675;51.538;6.728;2022-09-24T04:42:57;16.10;99.90
19085;DHT22;9675;51.538;6.728;2022-09-24T04:45:26;16.10;99.90
19085;DHT22;9675;51.538;6.728;2022-09-24T04:47:53;16.10;99.90
19085;DHT22;9675;51.538;6.728;2022-09-24T04:50:22;16.10;99.90
19085;DHT22;9675;51.538;6.728;2022-09-24T04:52:50;16.10;99.90
19085;DHT22;9675;51.538;6.728;2022-09-24T04:55:17;16.00;99.90
19085;DHT22;9675;51.538;6.728;2022-09-24T04:57:45;16.00;99.90
19085;DHT22;9675;51.538;6.728;2022-09-24T05:00:15;16.00;99.90
19085;DHT22;9675;51.538;6.728;2022-09-24T05:02:45;16.00;99.90
19085;DHT22;9675;51.538;6.728;2022-09-24T05:05:13;16.00;99.90
19085;DHT22;9675;51.538;6.728;2022-09-24T05:07:40;16.00;99.90
19085;DHT22;9675;51.538;6.728;2022-09-24T05:10:09;16.10;99.90
19085;DHT22;9675;51.538;6.728;2022-09-24T05:12:36;16.10;99.90
19085;DHT22;9675;51.538;6.728;2022-09-24T05:15:07;16.10;99.90
19085;DHT22;9675;51.538;6.728;2022-09-24T05:17:37;16.10;99.90
19085;DHT22;9675;51.538;6.728;2022-09-24T05:20:07;16.00;99.90
19085;DHT22;9675;51.538;6.728;2022-09-24T05:22:39;16.00;99.90
19085;DHT22;9675;51.538;6.728;2022-09-24T05:25:07;15.90;99.90
19085;DHT22;9675;51.538;6.728;2022-09-24T05:27:34;16.00;99.90
19085;DHT22;9675;51.538;6.728;2022-09-24T05:30:00;15.90;99.90
19085;DHT22;9675;51.538;6.728;2022-09-24T05:32:29;15.90;99.90
19085;DHT22;9675;51.538;6.728;2022-09-24T05:35:01;15.90;99.90
19085;DHT22;9675;51.538;6.728;2022-09-24T05:37:32;15.90;99.90
19085;DHT22;9675;51.538;6.728;2022-09-24T05:39:59;15.80;99.90
19085;DHT22;9675;51.538;6.728;2022-09-24T05:42:48;15.80;99.90
19085;DHT22;9675;51.538;6.728;2022-09-24T05:45:15;15.80;99.90
19085;DHT22;9675;51.538;6.728;2022-09-24T05:47:43;15.90;99.90
19085;DHT22;9675;51.538;6.728;2022-09-24T05:50:11;15.90;99.90
19085;DHT22;9675;51.538;6.728;2022-09-24T05:52:40;15.90;99.90
19085;DHT22;9675;51.538;6.728;2022-09-24T05:55:08;15.90;99.90
19085;DHT22;9675;51.538;6.728;2022-09-24T05:57:36;15.90;99.90
19085;DHT22;9675;51.538;6.728;2022-09-24T06:00:05;15.90;99.90
19085;DHT22;9675;51.538;6.728;2022-09-24T06:02:33;15.90;99.90
19085;DHT22;9675;51.538;6.728;2022-09-24T06:05:00;15.90;99.90
19085;DHT22;9675;51.538;6.728;2022-09-24T06:07:27;15.90;99.90
19085;DHT22;9675;51.538;6.728;2022-09-24T06:09:56;15.90;99.90
19085;DHT22;9675;51.538;6.728;2022-09-24T06:12:27;15.90;99.90
19085;DHT22;9675;51.538;6.728;2022-09-24T06:14:55;15.90;99.90
19085;DHT22;9675;51.538;6.728;2022-09-24T06:17:22;15.80;99.90
19085;DHT22;9675;51.538;6.728;2022-09-24T06:19:49;15.80;99.90
19085;DHT22;9675;51.538;6.728;2022-09-24T06:22:16;15.80;99.90
19085;DHT22;9675;51.538;6.728;2022-09-24T06:24:44;15.70;99.90
19085;DHT22;9675;51.538;6.728;2022-09-24T06:27:13;15.70;99.90
19085;DHT22;9675;51.538;6.728;2022-09-24T06:29:40;15.70;99.90
19085;DHT22;9675;51.538;6.728;2022-09-24T06:32:07;15.70;99.90
19085;DHT22;9675;51.538;6.728;2022-09-24T06:34:34;15.70;99.90
19085;DHT22;9675;51.538;6.728;2022-09-24T06:37:04;15.60;99.90
19085;DHT22;9675;51.538;6.728;2022-09-24T06:39:31;15.70;99.90
19085;DHT22;9675;51.538;6.728;2022-09-24T06:41:58;15.80;99.90
19085;DHT22;9675;51.538;6.728;2022-09-24T06:44:27;15.70;99.90
19085;DHT22;9675;51.538;6.728;2022-09-24T06:46:54;15.80;99.90
19085;DHT22;9675;51.538;6.728;2022-09-24T06:49:21;15.80;99.90
19085;DHT22;9675;51.538;6.728;2022-09-24T06:51:52;15.80;99.90
19085;DHT22;9675;51.538;6.728;2022-09-24T06:54:20;15.70;99.90
19085;DHT22;9675;51.538;6.728;2022-09-24T06:56:48;15.70;99.90
19085;DHT22;9675;51.538;6.728;2022-09-24T06:59:16;15.80;99.90
19085;DHT22;9675;51.538;6.728;2022-09-24T07:01:45;15.70;99.90
19085;DHT22;9675;51.538;6.728;2022-09-24T07:04:12;15.70;99.90
19085;DHT22;9675;51.538;6.728;2022-09-24T07:06:39;15.70;99.90
19085;DHT22;9675;51.538;6.728;2022-09-24T07:09:26;15.70;99.90
19085;DHT22;9675;51.538;6.728;2022-09-24T07:11:53;15.70;99.90
19085;DHT22;9675;51.538;6.728;2022-09-24T07:14:21;15.70;99.90
19085;DHT22;9675;51.538;6.728;2022-09-24T07:16:50;15.70;99.90
19085;DHT22;9675;51.538;6.728;2022-09-24T07:19:19;15.70;99.90
19085;DHT22;9675;51.538;6.728;2022-09-24T07:21:46;15.70;99.90
19085;DHT22;9675;51.538;6.728;2022-09-24T07:24:14;15.80;99.90
19085;DHT22;9675;51.538;6.728;2022-09-24T07:26:41;15.80;99.90
19085;DHT22;9675;51.538;6.728;2022-09-24T07:29:08;15.80;99.90
19085;DHT22;9675;51.538;6.728;2022-09-24T07:31:35;15.80;99.90
19085;DHT22;9675;51.538;6.728;2022-09-24T07:34:07;15.80;99.90
19085;DHT22;9675;51.538;6.728;2022-09-24T07:36:34;15.80;99.90
19085;DHT22;9675;51.538;6.728;2022-09-24T07:39:02;15.90;99.90
19085;DHT22;9675;51.538;6.728;2022-09-24T07:41:30;15.90;99.90
19085;DHT22;9675;51.538;6.728;2022-09-24T07:43:57;15.80;99.90
19085;DHT22;9675;51.538;6.728;2022-09-24T07:46:25;15.90;99.90
19085;DHT22;9675;51.538;6.728;2022-09-24T07:48:52;15.90;99.90
19085;DHT22;9675;51.538;6.728;2022-09-24T07:51:22;15.90;99.90
19085;DHT22;9675;51.538;6.728;2022-09-24T07:53:50;15.90;99.90
19085;DHT22;9675;51.538;6.728;2022-09-24T07:56:18;15.90;99.90
19085;DHT22;9675;51.538;6.728;2022-09-24T07:58:47;15.90;99.90
19085;DHT22;9675;51.538;6.728;2022-09-24T08:01:15;15.90;99.90
19085;DHT22;9675;51.538;6.728;2022-09-24T08:03:42;15.90;99.90
19085;DHT22;9675;51.538;6.728;2022-09-24T08:06:09;15.90;99.90
19085;DHT22;9675;51.538;6.728;2022-09-24T08:08:39;15.90;99.90
19085;DHT22;9675;51.538;6.728;2022-09-24T08:11:07;15.90;99.90
19085;DHT22;9675;51.538;6.728;2022-09-24T08:13:36;15.90;99.90
19085;DHT22;9675;51.538;6.728;2022-09-24T08:16:04;15.90;99.90
19085;DHT22;9675;51.538;6.728;2022-09-24T08:18:32;16.00;99.90
19085;DHT22;9675;51.538;6.728;2022-09-24T08:21:03;16.00;99.90
19085;DHT22;9675;51.538;6.728;2022-09-24T08:23:32;16.00;99.90
19085;DHT22;9675;51.538;6.728;2022-09-24T08:26:01;16.00;99.90
19085;DHT22;9675;51.538;6.728;2022-09-24T08:28:29;16.10;99.90
19085;DHT22;9675;51.538;6.728;2022-09-24T08:30:57;16.10;99.90
19085;DHT22;9675;51.538;6.728;2022-09-24T08:33:25;16.10;99.90
19085;DHT22;9675;51.538;6.728;2022-09-24T08:35:52;16.10;99.90
19085;DHT22;9675;51.538;6.728;2022-09-24T08:38:19;16.10;99.90
19085;DHT22;9675;51.538;6.728;2022-09-24T08:40:53;16.20;99.90
19085;DHT22;9675;51.538;6.728;2022-09-24T08:43:36;16.30;99.90
19085;DHT22;9675;51.538;6.728;2022-09-24T08:46:15;16.40;99.90
19085;DHT22;9675;51.538;6.728;2022-09-24T08:49:08;16.40;99.90
19085;DHT22;9675;51.538;6.728;2022-09-24T08:51:49;16.50;99.90
19085;DHT22;9675;51.538;6.728;2022-09-24T08:54:27;16.50;99.90
19085;DHT22;9675;51.538;6.728;2022-09-24T08:56:57;16.60;99.90
19085;DHT22;9675;51.538;6.728;2022-09-24T08:59:32;16.60;99.90
19085;DHT22;9675;51.538;6.728;2022-09-24T09:02:18;16.60;99.90
19085;DHT22;9675;51.538;6.728;2022-09-24T09:04:58;16.60;99.90
19085;DHT22;9675;51.538;6.728;2022-09-24T09:07:41;16.70;99.90
19085;DHT22;9675;51.538;6.728;2022-09-24T09:10:15;16.70;99.90
19085;DHT22;9675;51.538;6.728;2022-09-24T09:12:54;16.80;99.90
19085;DHT22;9675;51.538;6.728;2022-09-24T09:15:30;16.80;99.90
19085;DHT22;9675;51.538;6.728;2022-09-24T09:18:06;16.80;99.90
19085;DHT22;9675;51.538;6.728;2022-09-24T09:20:40;16.80;99.90
19085;DHT22;9675;51.538;6.728;2022-09-24T09:23:15;16.90;99.90
19085;DHT22;9675;51.538;6.728;2022-09-24T09:25:47;16.90;99.90
19085;DHT22;9675;51.538;6.728;2022-09-24T09:28:18;16.90;99.90
19085;DHT22;9675;51.538;6.728;2022-09-24T09:30:58;17.00;99.90
19085;DHT22;9675;51.538;6.728;2022-09-24T09:33:47;17.00;99.90
19085;DHT22;9675;51.538;6.728;2022-09-24T09:36:46;17.00;99.90
19085;DHT22;9675;51.538;6.728;2022-09-24T09:39:33;17.00;99.90
19085;DHT22;9675;51.538;6.728;2022-09-24T09:42:32;17.00;99.90
19085;DHT22;9675;51.538;6.728;2022-09-24T09:45:17;17.00;99.90
19085;DHT22;9675;51.538;6.728;2022-09-24T09:47:55;17.00;99.90
19085;DHT22;9675;51.538;6.728;2022-09-24T09:50:26;17.10;99.90
19085;DHT22;9675;51.538;6.728;2022-09-24T09:52:56;17.10;99.90
19085;DHT22;9675;51.538;6.728;2022-09-24T09:55:25;17.20;99.90
19085;DHT22;9675;51.538;6.728;2022-09-24T09:58:00;17.20;99.90
19085;DHT22;9675;51.538;6.728;2022-09-24T10:00:36;17.20;99.90
19085;DHT22;9675;51.538;6.728;2022-09-24T10:03:05;17.30;99.90
19085;DHT22;9675;51.538;6.728;2022-09-24T10:05:53;17.30;99.90
19085;DHT22;9675;51.538;6.728;2022-09-24T10:08:23;17.40;99.90
19085;DHT22;9675;51.538;6.728;2022-09-24T10:10:55;17.40;99.90
19085;DHT22;9675;51.538;6.728;2022-09-24T10:13:24;17.50;99.90
19085;DHT22;9675;51.538;6.728;2022-09-24T10:15:54;17.50;99.90
19085;DHT22;9675;51.538;6.728;2022-09-24T10:18:35;17.50;99.90
19085;DHT22;9675;51.538;6.728;2022-09-24T10:21:28;17.60;99.90
19085;DHT22;9675;51.538;6.728;2022-09-24T10:24:17;17.60;99.90
19085;DHT22;9675;51.538;6.728;2022-09-24T10:26:57;17.60;99.90
19085;DHT22;9675;51.538;6.728;2022-09-24T10:29:29;17.70;99.90
19085;DHT22;9675;51.538;6.728;2022-09-24T10:32:18;17.70;99.90
19085;DHT22;9675;51.538;6.728;2022-09-24T10:34:57;17.70;99.90
19085;DHT22;9675;51.538;6.728;2022-09-24T10:37:27;17.80;99.90
19085;DHT22;9675;51.538;6.728;2022-09-24T10:39:58;17.70;99.90
19085;DHT22;9675;51.538;6.728;2022-09-24T10:42:28;17.70;99.90
19085;DHT22;9675;51.538;6.728;2022-09-24T10:45:00;17.80;99.90
19085;DHT22;9675;51.538;6.728;2022-09-24T10:47:45;17.80;99.90
19085;DHT22;9675;51.538;6.728;2022-09-24T10:50:26;17.80;99.90
19085;DHT22;9675;51.538;6.728;2022-09-24T10:53:05;17.90;99.90
19085;DHT22;9675;51.538;6.728;2022-09-24T10:55:44;17.90;99.90
19085;DHT22;9675;51.538;6.728;2022-09-24T10:58:34;17.90;99.90
19085;DHT22;9675;51.538;6.728;2022-09-24T11:01:17;18.00;99.90
19085;DHT22;9675;51.538;6.728;2022-09-24T11:04:07;18.00;99.90
19085;DHT22;9675;51.538;6.728;2022-09-24T11:07:26;18.10;99.90
19085;DHT22;9675;51.538;6.728;2022-09-24T11:10:25;18.10;99.90
19085;DHT22;9675;51.538;6.728;2022-09-24T11:13:24;18.10;99.90
19085;DHT22;9675;51.538;6.728;2022-09-24T11:16:25;18.10;99.90
19085;DHT22;9675;51.538;6.728;2022-09-24T11:19:39;18.10;99.90
19085;DHT22;9675;51.538;6.728;2022-09-24T11:22:31;18.10;99.90
19085;DHT22;9675;51.538;6.728;2022-09-24T11:25:19;18.10;99.90
19085;DHT22;9675;51.538;6.728;2022-09-24T11:28:03;18.20;99.90
19085;DHT22;9675;51.538;6.728;2022-09-24T11:30:47;18.20;99.90
19085;DHT22;9675;51.538;6.728;2022-09-24T11:33:33;18.20;99.90
19085;DHT22;9675;51.538;6.728;2022-09-24T11:36:35;18.20;99.90
19085;DHT22;9675;51.538;6.728;2022-09-24T11:39:33;18.30;99.90
19085;DHT22;9675;51.538;6.728;2022-09-24T11:42:17;18.30;99.90
19085;DHT22;9675;51.538;6.728;2022-09-24T11:48:22;18.40;99.90
19085;DHT22;9675;51.538;6.728;2022-09-24T11:51:08;18.40;99.90
19085;DHT22;9675;51.538;6.728;2022-09-24T11:53:50;18.40;99.90
19085;DHT22;9675;51.538;6.728;2022-09-24T11:56:29;18.50;99.90
19085;DHT22;9675;51.538;6.728;2022-09-24T11:59:09;18.40;99.90
19085;DHT22;9675;51.538;6.728;2022-09-24T12:01:47;18.40;99.90
19085;DHT22;9675;51.538;6.728;2022-09-24T12:04:21;18.40;99.90
19085;DHT22;9675;51.538;6.728;2022-09-24T12:06:57;18.50;99.90
19085;DHT22;9675;51.538;6.728;2022-09-24T12:09:34;18.50;99.90
19085;DHT22;9675;51.538;6.728;2022-09-24T12:12:08;18.50;99.90
19085;DHT22;9675;51.538;6.728;2022-09-24T12:14:45;18.50;99.90
19085;DHT22;9675;51.538;6.728;2022-09-24T12:17:21;18.50;99.90
19085;DHT22;9675;51.538;6.728;2022-09-24T12:20:15;18.50;99.90
19085;DHT22;9675;51.538;6.728;2022-09-24T12:22:47;18.60;99.90
19085;DHT22;9675;51.538;6.728;2022-09-24T12:25:20;18.60;99.90
19085;DHT22;9675;51.538;6.728;2022-09-24T12:27:49;18.60;99.90
19085;DHT22;9675;51.538;6.728;2022-09-24T12:30:32;18.60;99.90
19085;DHT22;9675;51.538;6.728;2022-09-24T12:33:30;18.70;99.90
19085;DHT22;9675;51.538;6.728;2022-09-24T12:36:10;18.70;99.90
19085;DHT22;9675;51.538;6.728;2022-09-24T12:38:47;18.70;99.90
19085;DHT22;9675;51.538;6.728;2022-09-24T12:41:28;18.70;99.90
19085;DHT22;9675;51.538;6.728;2022-09-24T12:44:03;18.70;99.90
19085;DHT22;9675;51.538;6.728;2022-09-24T12:46:41;18.70;99.90
19085;DHT22;9675;51.538;6.728;2022-09-24T12:49:19;18.70;99.90
19085;DHT22;9675;51.538;6.728;2022-09-24T12:51:56;18.80;99.90
19085;DHT22;9675;51.538;6.728;2022-09-24T12:54:28;18.80;99.90
19085;DHT22;9675;51.538;6.728;2022-09-24T12:57:08;18.80;99.90
19085;DHT22;9675;51.538;6.728;2022-09-24T12:59:49;18.70;99.90
19085;DHT22;9675;51.538;6.728;2022-09-24T13:02:20;18.70;99.90
19085;DHT22;9675;51.538;6.728;2022-09-24T13:04:51;18.80;99.90
19085;DHT22;9675;51.538;6.728;2022-09-24T13:07:33;18.70;99.90
19085;DHT22;9675;51.538;6.728;2022-09-24T13:10:21;18.80;99.90
19085;DHT22;9675;51.538;6.728;2022-09-24T13:12:50;18.80;99.90
19085;DHT22;9675;51.538;6.728;2022-09-24T13:15:35;18.80;99.90
19085;DHT22;9675;51.538;6.728;2022-09-24T13:18:17;18.80;99.90
19085;DHT22;9675;51.538;6.728;2022-09-24T13:21:00;18.80;99.90
19085;DHT22;9675;51.538;6.728;2022-09-24T13:23:48;18.80;99.90
19085;DHT22;9675;51.538;6.728;2022-09-24T13:26:30;18.70;99.90
19085;DHT22;9675;51.538;6.728;2022-09-24T13:29:03;18.70;99.90
19085;DHT22;9675;51.538;6.728;2022-09-24T13:31:38;18.80;99.90
19085;DHT22;9675;51.538;6.728;2022-09-24T13:34:16;18.80;99.90
19085;DHT22;9675;51.538;6.728;2022-09-24T13:36:50;18.80;99.90
19085;DHT22;9675;51.538;6.728;2022-09-24T13:39:27;18.80;99.90
19085;DHT22;9675;51.538;6.728;2022-09-24T13:42:05;18.80;99.90
19085;DHT22;9675;51.538;6.728;2022-09-24T13:44:42;18.90;99.90
19085;DHT22;9675;51.538;6.728;2022-09-24T13:47:23;18.80;99.90
19085;DHT22;9675;51.538;6.728;2022-09-24T13:50:05;18.90;99.90
19085;DHT22;9675;51.538;6.728;2022-09-24T13:52:42;18.90;99.90
19085;DHT22;9675;51.538;6.728;2022-09-24T13:55:17;18.90;99.90
19085;DHT22;9675;51.538;6.728;2022-09-24T13:57:47;18.90;99.90
19085;DHT22;9675;51.538;6.728;2022-09-24T14:00:18;18.90;99.90
19085;DHT22;9675;51.538;6.728;2022-09-24T14:02:59;18.90;99.90
19085;DHT22;9675;51.538;6.728;2022-09-24T14:05:33;18.90;99.90
19085;DHT22;9675;51.538;6.728;2022-09-24T14:08:03;18.90;99.90
19085;DHT22;9675;51.538;6.728;2022-09-24T14:10:34;18.90;99.90
19085;DHT22;9675;51.538;6.728;2022-09-24T14:13:13;18.90;99.90
19085;DHT22;9675;51.538;6.728;2022-09-24T14:15:51;18.90;99.90
19085;DHT22;9675;51.538;6.728;2022-09-24T14:18:22;18.90;99.90
19085;DHT22;9675;51.538;6.728;2022-09-24T14:20:54;18.90;99.90
19085;DHT22;9675;51.538;6.728;2022-09-24T14:23:29;19.00;99.90
19085;DHT22;9675;51.538;6.728;2022-09-24T14:26:00;18.90;99.90
19085;DHT22;9675;51.538;6.728;2022-09-24T14:28:28;19.00;99.90
19085;DHT22;9675;51.538;6.728;2022-09-24T14:30:58;19.00;99.90
19085;DHT22;9675;51.538;6.728;2022-09-24T14:33:30;19.00;99.90
19085;DHT22;9675;51.538;6.728;2022-09-24T14:36:00;19.00;99.90
19085;DHT22;9675;51.538;6.728;2022-09-24T14:38:30;19.00;99.90
19085;DHT22;9675;51.538;6.728;2022-09-24T14:41:03;19.00;99.90
19085;DHT22;9675;51.538;6.728;2022-09-24T14:43:43;19.00;99.90
19085;DHT22;9675;51.538;6.728;2022-09-24T14:46:17;19.00;99.90
19085;DHT22;9675;51.538;6.728;2022-09-24T14:48:49;18.90;99.90
19085;DHT22;9675;51.538;6.728;2022-09-24T14:51:24;18.90;99.90
19085;DHT22;9675;51.538;6.728;2022-09-24T14:54:00;18.90;99.90
19085;DHT22;9675;51.538;6.728;2022-09-24T14:56:30;18.90;99.90
19085;DHT22;9675;51.538;6.728;2022-09-24T14:59:00;18.80;99.90
19085;DHT22;9675;51.538;6.728;2022-09-24T15:01:30;18.80;99.90
19085;DHT22;9675;51.538;6.728;2022-09-24T15:04:02;18.80;99.90
19085;DHT22;9675;51.538;6.728;2022-09-24T15:06:33;18.80;99.90
19085;DHT22;9675;51.538;6.728;2022-09-24T15:09:05;18.70;99.90
19085;DHT22;9675;51.538;6.728;2022-09-24T15:11:35;18.70;99.90
19085;DHT22;9675;51.538;6.728;2022-09-24T15:14:12;18.70;99.90
19085;DHT22;9675;51.538;6.728;2022-09-24T15:16:50;18.70;99.90
19085;DHT22;9675;51.538;6.728;2022-09-24T15:19:21;18.70;99.90
19085;DHT22;9675;51.538;6.728;2022-09-24T15:21:53;18.70;99.90
19085;DHT22;9675;51.538;6.728;2022-09-24T15:24:23;18.60;99.90
19085;DHT22;9675;51.538;6.728;2022-09-24T15:27:00;18.60;99.90
19085;DHT22;9675;51.538;6.728;2022-09-24T15:29:30;18.60;99.90
19085;DHT22;9675;51.538;6.728;2022-09-24T15:31:58;18.60;99.90
19085;DHT22;9675;51.538;6.728;2022-09-24T15:34:28;18.60;99.90
19085;DHT22;9675;51.538;6.728;2022-09-24T15:36:56;18.60;99.90
19085;DHT22;9675;51.538;6.728;2022-09-24T15:39:25;18.70;99.90
19085;DHT22;9675;51.538;6.728;2022-09-24T15:41:54;18.60;99.90
19085;DHT22;9675;51.538;6.728;2022-09-24T15:44:22;18.60;99.90
19085;DHT22;9675;51.538;6.728;2022-09-24T15:46:51;18.60;99.90
19085;DHT22;9675;51.538;6.728;2022-09-24T15:49:19;18.60;99.90
19085;DHT22;9675;51.538;6.728;2022-09-24T15:51:50;18.50;99.90
19085;DHT22;9675;51.538;6.728;2022-09-24T15:54:19;18.50;99.90
19085;DHT22;9675;51.538;6.728;2022-09-24T15:56:49;18.50;99.90
19085;DHT22;9675;51.538;6.728;2022-09-24T15:59:17;18.50;99.90
19085;DHT22;9675;51.538;6.728;2022-09-24T16:01:45;18.50;99.90
19085;DHT22;9675;51.538;6.728;2022-09-24T16:04:15;18.50;99.90
19085;DHT22;9675;51.538;6.728;2022-09-24T16:06:42;18.50;99.90
19085;DHT22;9675;51.538;6.728;2022-09-24T16:09:11;18.40;99.90
19085;DHT22;9675;51.538;6.728;2022-09-24T16:11:38;18.40;99.90
19085;DHT22;9675;51.538;6.728;2022-09-24T16:14:05;18.40;99.90
19085;DHT22;9675;51.538;6.728;2022-09-24T16:16:33;18.40;99.90
19085;DHT22;9675;51.538;6.728;2022-09-24T16:19:00;18.40;99.90
19085;DHT22;9675;51.538;6.728;2022-09-24T16:21:27;18.40;99.90
19085;DHT22;9675;51.538;6.728;2022-09-24T16:23:54;18.30;99.90
19085;DHT22;9675;51.538;6.728;2022-09-24T16:26:23;18.30;99.90
19085;DHT22;9675;51.538;6.728;2022-09-24T16:28:50;18.30;99.90